sensor_id;sensor_type;location;lat;lon;timestamp;pressure;altitude;pressure_sealevel;temperature;humidity
54546;BME280;40444;45.184;9.850;2023-11-18T00:00:24;101313.19;;;7.51;87.14
54546;BME280;40444;45.184;9.850;2023-11-18T00:02:53;101314.34;;;7.47;87.87
54546;BME280;40444;45.184;9.850;2023-11-18T00:05:21;101312.84;;;7.43;88.75
54546;BME280;40444;45.184;9.850;2023-11-18T00:07:52;101315.56;;;7.28;87.03
54546;BME280;40444;45.184;9.850;2023-11-18T00:10:20;101321.19;;;7.24;86.26
54546;BME280;40444;45.184;9.850;2023-11-18T00:12:49;101323.25;;;7.33;85.80
54546;BME280;40444;45.184;9.850;2023-11-18T00:15:18;101324.94;;;7.34;85.65
54546;BME280;40444;45.184;9.850;2023-11-18T00:17:48;101319.75;;;7.45;85.54
54546;BME280;40444;45.184;9.850;2023-11-18T00:20:16;101316.41;;;7.56;84.38
54546;BME280;40444;45.184;9.850;2023-11-18T00:22:44;101317.16;;;7.58;84.05
54546;BME280;40444;45.184;9.850;2023-11-18T00:25:13;101325.75;;;7.49;84.69
54546;BME280;40444;45.184;9.850;2023-11-18T00:27:42;101329.19;;;7.51;84.26
54546;BME280;40444;45.184;9.850;2023-11-18T00:30:11;101333.38;;;7.55;84.06
54546;BME280;40444;45.184;9.850;2023-11-18T00:32:40;101327.28;;;7.53;84.54
54546;BME280;40444;45.184;9.850;2023-11-18T00:35:09;101332.59;;;7.53;84.89
54546;BME280;40444;45.184;9.850;2023-11-18T00:37:38;101327.09;;;7.56;85.09
54546;BME280;40444;45.184;9.850;2023-11-18T00:40:08;101332.31;;;7.57;84.66
54546;BME280;40444;45.184;9.850;2023-11-18T00:42:37;101334.00;;;7.58;83.65
54546;BME280;40444;45.184;9.850;2023-11-18T00:45:09;101341.09;;;7.59;82.55
54546;BME280;40444;45.184;9.850;2023-11-18T00:47:40;101343.69;;;7.47;83.85
54546;BME280;40444;45.184;9.850;2023-11-18T00:50:12;101337.69;;;7.43;83.17
54546;BME280;40444;45.184;9.850;2023-11-18T00:52:41;101349.97;;;7.31;84.64
54546;BME280;40444;45.184;9.850;2023-11-18T00:55:10;101350.94;;;7.30;84.64
54546;BME280;40444;45.184;9.850;2023-11-18T00:57:41;101351.91;;;7.29;86.34
54546;BME280;40444;45.184;9.850;2023-11-18T01:00:13;101358.94;;;7.30;87.39
54546;BME280;40444;45.184;9.850;2023-11-18T01:02:43;101357.25;;;7.29;87.85
54546;BME280;40444;45.184;9.850;2023-11-18T01:05:11;101359.50;;;7.35;87.89
54546;BME280;40444;45.184;9.850;2023-11-18T01:07:39;101358.19;;;7.28;88.21
54546;BME280;40444;45.184;9.850;2023-11-18T01:10:09;101365.13;;;7.31;88.49
54546;BME280;40444;45.184;9.850;2023-11-18T01:12:38;101372.09;;;7.33;88.22
54546;BME280;40444;45.184;9.850;2023-11-18T01:15:07;101371.88;;;7.37;88.27
54546;BME280;40444;45.184;9.850;2023-11-18T01:17:38;101376.56;;;7.33;89.30
54546;BME280;40444;45.184;9.850;2023-11-18T01:20:07;101368.47;;;7.34;88.39
54546;BME280;40444;45.184;9.850;2023-11-18T01:22:39;101373.13;;;7.31;87.15
54546;BME280;40444;45.184;9.850;2023-11-18T01:25:09;101372.09;;;7.33;85.85
54546;BME280;40444;45.184;9.850;2023-11-18T01:27:37;101371.13;;;7.34;86.74
54546;BME280;40444;45.184;9.850;2023-11-18T01:30:06;101380.34;;;7.43;86.06
54546;BME280;40444;45.184;9.850;2023-11-18T01:32:35;101385.03;;;7.25;87.25
54546;BME280;40444;45.184;9.850;2023-11-18T01:35:04;101386.97;;;7.23;88.61
54546;BME280;40444;45.184;9.850;2023-11-18T01:37:34;101385.34;;;7.21;90.03
54546;BME280;40444;45.184;9.850;2023-11-18T01:40:04;101399.53;;;7.07;90.33
54546;BME280;40444;45.184;9.850;2023-11-18T01:42:34;101393.91;;;6.97;90.20
54546;BME280;40444;45.184;9.850;2023-11-18T01:45:02;101398.97;;;6.88;90.49
54546;BME280;40444;45.184;9.850;2023-11-18T01:47:32;101401.06;;;6.97;89.50
54546;BME280;40444;45.184;9.850;2023-11-18T01:50:02;101395.72;;;6.97;89.67
54546;BME280;40444;45.184;9.850;2023-11-18T01:52:34;101392.09;;;6.83;90.73
54546;BME280;40444;45.184;9.850;2023-11-18T01:55:03;101392.38;;;6.79;90.77
54546;BME280;40444;45.184;9.850;2023-11-18T01:57:34;101392.94;;;6.70;89.53
54546;BME280;40444;45.184;9.850;2023-11-18T02:00:06;101402.25;;;6.77;88.68
54546;BME280;40444;45.184;9.850;2023-11-18T02:02:39;101405.50;;;6.82;87.79
54546;BME280;40444;45.184;9.850;2023-11-18T02:05:08;101399.81;;;6.88;87.67
54546;BME280;40444;45.184;9.850;2023-11-18T02:07:36;101394.56;;;7.01;88.75
54546;BME280;40444;45.184;9.850;2023-11-18T02:10:07;101391.63;;;7.05;88.10
54546;BME280;40444;45.184;9.850;2023-11-18T02:12:38;101392.19;;;7.11;87.19
54546;BME280;40444;45.184;9.850;2023-11-18T02:15:10;101397.44;;;7.12;86.55
54546;BME280;40444;45.184;9.850;2023-11-18T02:17:41;101405.97;;;7.17;85.47
54546;BME280;40444;45.184;9.850;2023-11-18T02:20:12;101404.38;;;7.15;85.23
54546;BME280;40444;45.184;9.850;2023-11-18T02:22:49;101417.78;;;7.13;86.61
54546;BME280;40444;45.184;9.850;2023-11-18T02:25:18;101416.06;;;7.12;87.39
54546;BME280;40444;45.184;9.850;2023-11-18T02:27:47;101430.25;;;7.13;88.48
54546;BME280;40444;45.184;9.850;2023-11-18T02:30:19;101429.69;;;7.07;88.99
54546;BME280;40444;45.184;9.850;2023-11-18T02:33:18;101441.31;;;7.06;86.25
54546;BME280;40444;45.184;9.850;2023-11-18T02:35:51;101442.81;;;6.96;86.91
54546;BME280;40444;45.184;9.850;2023-11-18T02:38:25;101443.56;;;6.84;87.30
54546;BME280;40444;45.184;9.850;2023-11-18T02:40:58;101435.56;;;6.84;87.99
54546;BME280;40444;45.184;9.850;2023-11-18T02:43:27;101442.34;;;6.90;87.92
54546;BME280;40444;45.184;9.850;2023-11-18T02:45:58;101449.19;;;6.94;88.36
54546;BME280;40444;45.184;9.850;2023-11-18T02:48:27;101446.41;;;6.95;88.09
54546;BME280;40444;45.184;9.850;2023-11-18T02:50:57;101446.25;;;6.98;88.03
54546;BME280;40444;45.184;9.850;2023-11-18T02:53:25;101449.38;;;7.05;87.08
54546;BME280;40444;45.184;9.850;2023-11-18T02:55:54;101451.19;;;7.04;87.25
54546;BME280;40444;45.184;9.850;2023-11-18T02:58:30;101456.44;;;7.06;88.65
54546;BME280;40444;45.184;9.850;2023-11-18T03:00:58;101459.28;;;7.03;89.02
54546;BME280;40444;45.184;9.850;2023-11-18T03:03:28;101459.00;;;7.07;90.15
54546;BME280;40444;45.184;9.850;2023-11-18T03:05:57;101464.63;;;7.03;91.02
54546;BME280;40444;45.184;9.850;2023-11-18T03:08:27;101457.56;;;7.02;91.38
54546;BME280;40444;45.184;9.850;2023-11-18T03:10:58;101461.28;;;6.99;88.95
54546;BME280;40444;45.184;9.850;2023-11-18T03:13:26;101461.44;;;6.96;88.83
54546;BME280;40444;45.184;9.850;2023-11-18T03:15:55;101463.25;;;6.96;89.69
54546;BME280;40444;45.184;9.850;2023-11-18T03:18:24;101463.66;;;6.90;89.27
54546;BME280;40444;45.184;9.850;2023-11-18T03:20:58;101465.66;;;7.00;89.94
54546;BME280;40444;45.184;9.850;2023-11-18T03:23:28;101461.94;;;7.03;88.01
54546;BME280;40444;45.184;9.850;2023-11-18T03:25:58;101461.16;;;7.01;88.30
54546;BME280;40444;45.184;9.850;2023-11-18T03:28:27;101459.66;;;6.97;88.33
54546;BME280;40444;45.184;9.850;2023-11-18T03:30:56;101471.25;;;6.96;88.07
54546;BME280;40444;45.184;9.850;2023-11-18T03:33:25;101462.97;;;7.00;86.95
54546;BME280;40444;45.184;9.850;2023-11-18T03:35:53;101472.72;;;7.01;88.18
54546;BME280;40444;45.184;9.850;2023-11-18T18:52:24;101598.56;;;7.21;100.00
54546;BME280;40444;45.184;9.850;2023-11-18T18:54:53;101613.16;;;7.29;100.00
54546;BME280;40444;45.184;9.850;2023-11-18T18:57:21;101607.56;;;7.48;100.00
54546;BME280;40444;45.184;9.850;2023-11-18T18:59:50;101605.13;;;7.59;100.00
54546;BME280;40444;45.184;9.850;2023-11-18T19:02:19;101616.94;;;7.55;100.00
54546;BME280;40444;45.184;9.850;2023-11-18T19:04:48;101610.31;;;7.32;100.00
54546;BME280;40444;45.184;9.850;2023-11-18T19:07:17;101601.91;;;7.24;100.00
54546;BME280;40444;45.184;9.850;2023-11-18T19:09:46;101598.78;;;7.32;100.00
54546;BME280;40444;45.184;9.850;2023-11-18T19:12:14;101608.81;;;7.43;100.00
54546;BME280;40444;45.184;9.850;2023-11-18T19:14:43;101607.16;;;7.40;100.00
54546;BME280;40444;45.184;9.850;2023-11-18T19:17:12;101615.09;;;7.42;100.00
54546;BME280;40444;45.184;9.850;2023-11-18T19:19:41;101611.56;;;7.41;100.00
54546;BME280;40444;45.184;9.850;2023-11-18T19:22:10;101606.81;;;7.46;100.00
54546;BME280;40444;45.184;9.850;2023-11-18T19:24:39;101601.00;;;7.54;100.00
54546;BME280;40444;45.184;9.850;2023-11-18T19:27:08;101586.81;;;7.68;100.00
54546;BME280;40444;45.184;9.850;2023-11-18T19:29:39;101595.41;;;7.73;100.00
54546;BME280;40444;45.184;9.850;2023-11-18T19:32:11;101592.94;;;7.84;100.00
54546;BME280;40444;45.184;9.850;2023-11-18T19:34:40;101589.38;;;7.98;100.00
54546;BME280;40444;45.184;9.850;2023-11-18T19:37:09;101590.81;;;8.03;100.00
54546;BME280;40444;45.184;9.850;2023-11-18T19:39:41;101592.44;;;8.06;100.00
54546;BME280;40444;45.184;9.850;2023-11-18T19:42:11;101598.53;;;8.08;100.00
54546;BME280;40444;45.184;9.850;2023-11-18T19:44:40;101604.81;;;8.07;100.00
54546;BME280;40444;45.184;9.850;2023-11-18T19:47:08;101617.78;;;7.99;100.00
54546;BME280;40444;45.184;9.850;2023-11-18T19:49:37;101599.03;;;8.00;100.00
54546;BME280;40444;45.184;9.850;2023-11-18T19:52:06;101603.59;;;7.98;100.00
54546;BME280;40444;45.184;9.850;2023-11-18T19:54:35;101611.03;;;7.93;100.00
54546;BME280;40444;45.184;9.850;2023-11-18T19:57:04;101608.53;;;7.90;100.00
54546;BME280;40444;45.184;9.850;2023-11-18T19:59:32;101594.72;;;7.98;100.00
54546;BME280;40444;45.184;9.850;2023-11-18T20:02:01;101600.16;;;7.96;100.00
54546;BME280;40444;45.184;9.850;2023-11-18T20:04:31;101617.78;;;7.99;100.00
54546;BME280;40444;45.184;9.850;2023-11-18T20:07:01;101615.03;;;8.00;100.00
54546;BME280;40444;45.184;9.850;2023-11-18T20:09:31;101623.13;;;7.99;100.00
54546;BME280;40444;45.184;9.850;2023-11-18T20:12:00;101623.34;;;7.96;100.00
54546;BME280;40444;45.184;9.850;2023-11-18T20:14:32;101622.94;;;8.02;100.00
54546;BME280;40444;45.184;9.850;2023-11-18T20:17:05;101625.16;;;7.95;100.00
54546;BME280;40444;45.184;9.850;2023-11-18T20:19:34;101609.44;;;7.91;100.00
54546;BME280;40444;45.184;9.850;2023-11-18T20:22:04;101617.63;;;7.88;100.00
54546;BME280;40444;45.184;9.850;2023-11-18T20:24:32;101613.25;;;7.87;100.00
54546;BME280;40444;45.184;9.850;2023-11-18T20:27:03;101624.56;;;7.90;100.00
54546;BME280;40444;45.184;9.850;2023-11-18T20:29:32;101620.75;;;7.94;100.00
54546;BME280;40444;45.184;9.850;2023-11-18T20:32:01;101618.28;;;7.91;100.00
54546;BME280;40444;45.184;9.850;2023-11-18T20:34:30;101616.53;;;7.90;100.00
54546;BME280;40444;45.184;9.850;2023-11-18T20:36:58;101607.03;;;7.86;100.00
54546;BME280;40444;45.184;9.850;2023-11-18T20:39:26;101615.81;;;7.88;100.00
54546;BME280;40444;45.184;9.850;2023-11-18T20:41:56;101626.75;;;7.83;100.00
54546;BME280;40444;45.184;9.850;2023-11-18T20:44:24;101629.31;;;7.85;100.00
54546;BME280;40444;45.184;9.850;2023-11-18T20:46:53;101624.94;;;7.84;100.00
54546;BME280;40444;45.184;9.850;2023-11-18T20:49:22;101612.66;;;7.81;100.00
54546;BME280;40444;45.184;9.850;2023-11-18T20:51:51;101606.56;;;7.79;100.00
54546;BME280;40444;45.184;9.850;2023-11-18T20:54:21;101604.44;;;7.84;100.00
54546;BME280;40444;45.184;9.850;2023-11-18T20:56:50;101596.66;;;7.81;100.00
54546;BME280;40444;45.184;9.850;2023-11-18T20:59:18;101585.69;;;7.72;100.00
54546;BME280;40444;45.184;9.850;2023-11-18T21:01:48;101588.63;;;7.67;100.00
54546;BME280;40444;45.184;9.850;2023-11-18T21:04:16;101581.47;;;7.53;100.00
54546;BME280;40444;45.184;9.850;2023-11-18T21:06:44;101585.66;;;7.57;100.00
54546;BME280;40444;45.184;9.850;2023-11-18T21:09:13;101585.00;;;7.54;100.00
54546;BME280;40444;45.184;9.850;2023-11-18T21:11:42;101586.06;;;7.51;100.00
54546;BME280;40444;45.184;9.850;2023-11-18T21:14:11;101603.03;;;7.50;100.00
54546;BME280;40444;45.184;9.850;2023-11-18T21:16:39;101605.19;;;7.58;100.00
54546;BME280;40444;45.184;9.850;2023-11-18T21:19:07;101594.53;;;7.58;100.00
54546;BME280;40444;45.184;9.850;2023-11-18T21:21:35;101596.06;;;7.62;100.00
54546;BME280;40444;45.184;9.850;2023-11-18T21:24:04;101602.63;;;7.56;100.00
54546;BME280;40444;45.184;9.850;2023-11-18T21:26:32;101589.19;;;7.58;100.00
54546;BME280;40444;45.184;9.850;2023-11-18T21:29:02;101593.59;;;7.59;100.00
54546;BME280;40444;45.184;9.850;2023-11-18T21:31:30;101594.91;;;7.66;100.00
54546;BME280;40444;45.184;9.850;2023-11-18T21:33:59;101588.91;;;7.63;100.00
54546;BME280;40444;45.184;9.850;2023-11-18T21:36:33;101578.34;;;7.61;100.00
54546;BME280;40444;45.184;9.850;2023-11-18T21:39:03;101575.50;;;7.64;100.00
54546;BME280;40444;45.184;9.850;2023-11-18T21:41:31;101581.69;;;7.65;100.00
54546;BME280;40444;45.184;9.850;2023-11-18T21:44:01;101566.72;;;7.62;100.00
54546;BME280;40444;45.184;9.850;2023-11-18T21:46:33;101558.81;;;7.60;100.00
54546;BME280;40444;45.184;9.850;2023-11-18T21:49:04;101561.84;;;7.54;100.00
54546;BME280;40444;45.184;9.850;2023-11-18T21:51:37;101570.72;;;7.55;100.00
54546;BME280;40444;45.184;9.850;2023-11-18T21:54:06;101571.75;;;7.52;100.00
54546;BME280;40444;45.184;9.850;2023-11-18T21:56:36;101590.53;;;7.51;100.00
54546;BME280;40444;45.184;9.850;2023-11-18T21:59:05;101588.91;;;7.48;100.00
54546;BME280;40444;45.184;9.850;2023-11-18T22:01:33;101584.25;;;7.52;100.00
54546;BME280;40444;45.184;9.850;2023-11-18T22:04:02;101582.63;;;7.49;100.00
54546;BME280;40444;45.184;9.850;2023-11-18T22:06:31;101573.59;;;7.52;100.00
54546;BME280;40444;45.184;9.850;2023-11-18T22:08:59;101578.13;;;7.35;100.00
54546;BME280;40444;45.184;9.850;2023-11-18T22:11:28;101579.34;;;7.30;100.00
54546;BME280;40444;45.184;9.850;2023-11-18T22:14:04;101589.34;;;7.26;100.00
54546;BME280;40444;45.184;9.850;2023-11-18T22:16:32;101600.97;;;7.25;100.00
54546;BME280;40444;45.184;9.850;2023-11-18T22:19:00;101592.44;;;7.19;100.00
54546;BME280;40444;45.184;9.850;2023-11-18T22:21:29;101588.47;;;7.26;100.00
54546;BME280;40444;45.184;9.850;2023-11-18T22:24:00;101589.53;;;7.23;100.00
54546;BME280;40444;45.184;9.850;2023-11-18T22:26:28;101586.88;;;7.23;100.00
54546;BME280;40444;45.184;9.850;2023-11-18T22:28:58;101590.47;;;7.22;100.00
54546;BME280;40444;45.184;9.850;2023-11-18T22:31:26;101582.88;;;7.30;100.00
54546;BME280;40444;45.184;9.850;2023-11-18T22:33:55;101582.69;;;7.33;100.00
54546;BME280;40444;45.184;9.850;2023-11-18T22:36:24;101576.25;;;7.38;100.00
54546;BME280;40444;45.184;9.850;2023-11-18T22:38:52;101584.81;;;7.43;100.00
54546;BME280;40444;45.184;9.850;2023-11-18T22:41:21;101595.75;;;7.38;100.00
54546;BME280;40444;45.184;9.850;2023-11-18T22:43:50;101613.34;;;7.41;100.00
54546;BME280;40444;45.184;9.850;2023-11-18T22:46:24;101612.59;;;7.39;100.00
54546;BME280;40444;45.184;9.850;2023-11-18T22:48:53;101623.81;;;7.29;100.00
54546;BME280;40444;45.184;9.850;2023-11-18T22:51:21;101626.22;;;7.34;100.00
54546;BME280;40444;45.184;9.850;2023-11-18T22:53:51;101604.88;;;7.34;100.00
54546;BME280;40444;45.184;9.850;2023-11-18T22:56:21;101595.34;;;7.30;100.00
54546;BME280;40444;45.184;9.850;2023-11-18T22:58:53;101597.16;;;7.29;100.00
54546;BME280;40444;45.184;9.850;2023-11-18T23:01:21;101576.13;;;7.25;100.00
54546;BME280;40444;45.184;9.850;2023-11-18T23:03:51;101569.06;;;7.24;100.00
54546;BME280;40444;45.184;9.850;2023-11-18T23:06:20;101566.69;;;7.19;100.00
54546;BME280;40444;45.184;9.850;2023-11-18T23:08:49;101578.38;;;7.17;100.00
54546;BME280;40444;45.184;9.850;2023-11-18T23:11:18;101577.63;;;7.15;100.00
54546;BME280;40444;45.184;9.850;2023-11-18T23:13:47;101562.19;;;7.05;100.00
54546;BME280;40444;45.184;9.850;2023-11-18T23:16:15;101549.88;;;7.03;100.00
54546;BME280;40444;45.184;9.850;2023-11-18T23:18:43;101560.03;;;6.96;100.00
54546;BME280;40444;45.184;9.850;2023-11-18T23:21:13;101566.84;;;7.02;100.00
54546;BME280;40444;45.184;9.850;2023-11-18T23:23:42;101568.91;;;6.97;100.00
54546;BME280;40444;45.184;9.850;2023-11-18T23:26:11;101569.28;;;7.05;100.00
54546;BME280;40444;45.184;9.850;2023-11-18T23:28:40;101572.09;;;7.18;100.00
54546;BME280;40444;45.184;9.850;2023-11-18T23:31:08;101565.91;;;7.17;100.00
54546;BME280;40444;45.184;9.850;2023-11-18T23:33:39;101560.75;;;7.14;100.00
54546;BME280;40444;45.184;9.850;2023-11-18T23:36:09;101548.66;;;7.08;100.00
54546;BME280;40444;45.184;9.850;2023-11-18T23:38:38;101573.59;;;7.07;100.00
54546;BME280;40444;45.184;9.850;2023-11-18T23:41:06;101576.75;;;7.14;100.00
54546;BME280;40444;45.184;9.850;2023-11-18T23:43:35;101558.56;;;7.06;100.00
54546;BME280;40444;45.184;9.850;2023-11-18T23:46:04;101564.16;;;7.02;100.00
54546;BME280;40444;45.184;9.850;2023-11-18T23:48:33;101565.28;;;6.98;100.00
54546;BME280;40444;45.184;9.850;2023-11-18T23:51:03;101567.09;;;6.97;100.00
54546;BME280;40444;45.184;9.850;2023-11-18T23:53:32;101574.59;;;6.91;100.00
54546;BME280;40444;45.184;9.850;2023-11-18T23:56:03;101577.94;;;6.94;100.00
54546;BME280;40444;45.184;9.850;2023-11-18T23:58:32;101577.94;;;6.94;100.00
